createdAt,value
2018-04-15T00:01:02.864Z,2.30
2018-04-15T00:03:31.157Z,2.40
2018-04-15T00:05:58.650Z,2.40
2018-04-15T00:08:26.090Z,2.00
2018-04-15T00:10:53.527Z,1.80
2018-04-15T00:13:21.803Z,2.40
2018-04-15T00:15:50.081Z,2.03
2018-04-15T00:18:18.357Z,1.80
2018-04-15T00:20:46.624Z,2.40
2018-04-15T00:23:14.896Z,2.00
2018-04-15T00:25:43.172Z,2.47
2018-04-15T00:28:11.448Z,1.60
2018-04-15T00:30:39.994Z,1.57
2018-04-15T00:33:08.254Z,1.67
2018-04-15T00:35:35.684Z,1.20
2018-04-15T00:38:03.947Z,1.13
2018-04-15T00:40:33.235Z,1.77
2018-04-15T00:43:00.705Z,1.73
2018-04-15T00:45:28.983Z,2.00
2018-04-15T00:47:57.272Z,2.00
2018-04-15T00:50:24.728Z,1.70
2018-04-15T00:52:53.000Z,2.00
2018-04-15T00:55:21.264Z,1.50
2018-04-15T00:57:49.541Z,2.70
2018-04-15T01:00:17.820Z,2.07
2018-04-15T01:02:46.107Z,2.10
2018-04-15T01:05:14.388Z,2.23
2018-04-15T01:07:41.819Z,2.17
2018-04-15T01:10:09.297Z,2.40
2018-04-15T01:12:37.575Z,3.63
2018-04-15T01:15:05.847Z,2.93
2018-04-15T01:17:34.133Z,2.93
2018-04-15T01:20:02.401Z,2.30
2018-04-15T01:22:30.672Z,2.00
2018-04-15T01:24:58.949Z,2.33
2018-04-15T01:27:27.229Z,2.53
2018-04-15T01:29:55.516Z,2.20
2018-04-15T01:32:22.980Z,1.80
2018-04-15T01:34:50.445Z,2.80
2018-04-15T01:37:17.885Z,2.93
2018-04-15T01:39:46.179Z,2.97
2018-04-15T01:42:13.623Z,2.87
2018-04-15T01:44:41.892Z,2.23
2018-04-15T01:47:10.159Z,2.97
2018-04-15T01:49:38.479Z,3.20
2018-04-15T01:52:05.933Z,3.07
2018-04-15T01:54:33.390Z,2.77
2018-04-15T01:57:00.827Z,2.57
2018-04-15T01:59:29.088Z,3.83
2018-04-15T02:01:57.360Z,3.13
2018-04-15T02:04:25.639Z,2.70
2018-04-15T02:06:53.914Z,2.87
2018-04-15T02:09:21.462Z,2.30
2018-04-15T02:11:48.880Z,2.40
2018-04-15T02:14:16.332Z,2.30
2018-04-15T02:16:43.777Z,2.13
2018-04-15T02:19:11.257Z,1.97
2018-04-15T02:21:38.708Z,3.23
2018-04-15T02:24:06.180Z,3.03
2018-04-15T02:26:33.619Z,2.97
2018-04-15T02:29:01.072Z,3.20
2018-04-15T02:31:29.532Z,3.70
2018-04-15T02:33:56.976Z,3.20
2018-04-15T02:36:25.261Z,3.10
2018-04-15T02:38:53.540Z,3.30
2018-04-15T02:41:21.811Z,4.80
2018-04-15T02:43:50.071Z,3.73
2018-04-15T02:46:17.532Z,3.03
2018-04-15T02:48:45.811Z,4.00
2018-04-15T02:51:13.274Z,3.80
2018-04-15T02:53:41.546Z,3.37
2018-04-15T02:56:09.021Z,2.87
2018-04-15T02:58:36.466Z,2.70
2018-04-15T03:01:04.760Z,2.20
2018-04-15T03:03:33.017Z,2.20
2018-04-15T03:06:00.488Z,1.93
2018-04-15T03:08:28.751Z,2.83
2018-04-15T03:10:56.216Z,2.80
2018-04-15T03:13:23.660Z,2.60
2018-04-15T03:15:51.952Z,1.90
2018-04-15T03:18:19.403Z,1.90
2018-04-15T03:20:47.692Z,2.30
2018-04-15T03:23:15.951Z,2.10
2018-04-15T03:25:43.425Z,1.57
2018-04-15T03:28:11.681Z,1.50
2018-04-15T03:30:39.149Z,1.73
2018-04-15T03:33:06.606Z,1.60
2018-04-15T03:35:34.061Z,1.67
2018-04-15T03:38:01.519Z,1.70
2018-04-15T03:40:29.013Z,1.40
2018-04-15T03:42:57.269Z,1.63
2018-04-15T03:45:24.748Z,1.47
2018-04-15T03:47:52.176Z,1.37
2018-04-15T03:50:19.620Z,1.10
2018-04-15T03:52:47.896Z,1.50
2018-04-15T03:55:15.368Z,1.37
2018-04-15T03:57:42.823Z,1.23
2018-04-15T04:00:10.288Z,1.20
2018-04-15T04:02:38.560Z,1.10
2018-04-15T04:05:07.113Z,1.03
2018-04-15T04:07:34.567Z,1.10
2018-04-15T04:10:02.019Z,1.40
2018-04-15T04:12:29.459Z,1.00
2018-04-15T04:14:56.915Z,1.00
2018-04-15T04:17:36.345Z,0.97
2018-04-15T04:20:17.479Z,1.20
2018-04-15T04:22:57.904Z,1.07
2018-04-15T04:25:37.170Z,1.03
2018-04-15T04:28:05.482Z,1.00
2018-04-15T04:30:32.928Z,1.10
2018-04-15T04:33:01.411Z,1.00
2018-04-15T04:35:29.877Z,1.20
2018-04-15T04:37:57.347Z,0.93
2018-04-15T04:40:26.885Z,1.00
2018-04-15T04:42:54.348Z,0.83
2018-04-15T04:45:26.888Z,0.77
2018-04-15T04:47:54.341Z,0.90
2018-04-15T04:50:22.624Z,0.97
2018-04-15T04:52:53.339Z,1.03
2018-04-15T04:55:21.621Z,1.10
2018-04-15T04:57:49.082Z,1.10
2018-04-15T05:00:17.351Z,1.03
2018-04-15T05:02:53.027Z,1.33
2018-04-15T05:05:26.294Z,1.20
2018-04-15T05:07:55.076Z,1.10
2018-04-15T05:10:22.975Z,0.90
2018-04-15T05:12:56.175Z,0.80
2018-04-15T05:15:28.497Z,0.80
2018-04-15T05:17:55.996Z,0.90
2018-04-15T05:20:24.829Z,1.13
2018-04-15T05:22:52.664Z,1.30
2018-04-15T05:25:20.600Z,1.30
2018-04-15T05:27:48.460Z,1.30
2018-04-15T05:30:16.740Z,0.80
2018-04-15T05:32:45.029Z,1.20
2018-04-15T05:35:12.746Z,0.90
2018-04-15T05:37:42.458Z,0.97
2018-04-15T05:42:46.348Z,0.80
2018-04-15T05:45:15.412Z,0.80
2018-04-15T05:47:45.778Z,1.00
2018-04-15T05:50:13.826Z,0.87
2018-04-15T05:52:42.670Z,1.13
2018-04-15T05:58:00.004Z,1.30
2018-04-15T06:03:24.302Z,1.60
2018-04-15T06:05:52.066Z,1.10
2018-04-15T06:08:21.811Z,1.10
2018-04-15T06:11:09.038Z,1.10
2018-04-15T06:13:39.287Z,0.80
2018-04-15T06:16:10.416Z,0.80
2018-04-15T06:18:39.357Z,0.80
2018-04-15T06:21:11.342Z,0.70
2018-04-15T06:23:40.568Z,0.80
2018-04-15T06:26:08.902Z,0.90
2018-04-15T06:31:17.175Z,0.90
2018-04-15T06:33:44.821Z,1.00
2018-04-15T06:36:23.717Z,1.33
2018-04-15T06:38:52.316Z,0.97
2018-04-15T06:41:21.632Z,1.40
2018-04-15T06:43:53.432Z,1.30
2018-04-15T06:46:21.957Z,1.77
2018-04-15T06:48:50.749Z,1.20
2018-04-15T06:51:31.823Z,1.90
2018-04-15T06:54:00.243Z,1.70
2018-04-15T06:56:31.965Z,1.83
2018-04-15T06:59:02.945Z,1.57
2018-04-15T07:01:34.799Z,1.77
2018-04-15T07:04:02.238Z,1.73
2018-04-15T07:09:25.658Z,1.50
2018-04-15T07:12:08.466Z,2.10
2018-04-15T07:14:48.469Z,1.40
2018-04-15T07:17:17.184Z,1.80
2018-04-15T07:19:45.809Z,1.43
2018-04-15T07:22:19.848Z,1.37
2018-04-15T07:24:48.182Z,1.90
2018-04-15T07:27:30.015Z,1.43
2018-04-15T07:32:33.965Z,1.70
2018-04-15T07:35:12.191Z,1.47
2018-04-15T07:37:42.494Z,1.53
2018-04-15T07:40:11.678Z,1.50
2018-04-15T07:42:48.304Z,1.50
2018-04-15T07:45:22.709Z,1.57
2018-04-15T07:47:50.580Z,1.50
2018-04-15T07:53:07.163Z,1.70
2018-04-15T07:56:03.304Z,1.50
2018-04-15T07:58:45.958Z,1.50
2018-04-15T08:01:23.982Z,1.50
2018-04-15T08:04:03.227Z,1.50
2018-04-15T08:09:57.904Z,1.53
2018-04-15T08:12:30.337Z,1.50
2018-04-15T08:17:40.009Z,1.40
2018-04-15T08:22:46.882Z,1.37
2018-04-15T08:25:19.425Z,1.57
2018-04-15T08:27:55.677Z,1.30
2018-04-15T08:30:28.807Z,1.40
2018-04-15T08:33:04.003Z,1.40
2018-04-15T08:35:40.240Z,1.40
2018-04-15T13:59:53.654Z,1.40
2018-04-15T14:02:24.419Z,1.40
2018-04-15T14:04:51.892Z,1.37
2018-04-15T14:07:19.882Z,1.37
2018-04-15T14:09:47.376Z,1.30
2018-04-15T14:12:15.709Z,1.00
2018-04-15T14:14:44.535Z,1.07
2018-04-15T14:17:12.021Z,1.63
2018-04-15T14:19:39.481Z,1.30
2018-04-15T14:22:06.955Z,1.20
2018-04-15T14:24:34.440Z,1.50
2018-04-15T14:27:03.857Z,1.30
2018-04-15T14:29:31.337Z,1.10
2018-04-15T14:32:04.137Z,1.10
2018-04-15T14:34:35.387Z,1.10
2018-04-15T14:37:09.299Z,1.20
2018-04-15T14:39:36.901Z,1.30
2018-04-15T14:42:21.244Z,1.57
2018-04-15T14:44:52.562Z,1.37
2018-04-15T14:47:24.265Z,1.23
2018-04-15T14:49:53.185Z,1.50
2018-04-15T14:52:22.556Z,1.00
2018-04-15T14:54:50.161Z,1.30
2018-04-15T14:57:17.648Z,1.50
2018-04-15T14:59:47.922Z,1.20
2018-04-15T15:02:16.529Z,1.43
2018-04-15T15:04:44.292Z,1.30
2018-04-15T15:07:12.682Z,1.00
2018-04-15T15:09:40.618Z,1.50
2018-04-15T15:12:08.473Z,1.20
2018-04-15T15:14:36.985Z,1.53
2018-04-15T15:17:04.472Z,1.80
2018-04-15T15:19:32.388Z,1.40
2018-04-15T15:22:01.352Z,1.30
2018-04-15T15:38:14.955Z,1.40
2018-04-15T15:40:43.058Z,1.30
2018-04-15T15:43:11.686Z,1.20
2018-04-15T15:45:39.169Z,1.30
2018-04-15T15:48:07.862Z,1.20
2018-04-15T15:50:36.653Z,1.17
2018-04-15T15:53:07.625Z,1.07
2018-04-15T15:55:37.057Z,1.00
2018-04-15T15:58:07.601Z,1.50
2018-04-15T16:00:37.880Z,1.20
2018-04-15T16:11:10.241Z,1.03
2018-04-15T16:13:44.490Z,1.00
2018-04-15T16:16:16.525Z,1.20
2018-04-15T16:21:42.316Z,1.13
2018-04-15T16:24:10.877Z,0.80
2018-04-15T16:26:39.330Z,0.80
2018-04-15T16:29:06.813Z,0.80
2018-04-15T16:31:34.284Z,0.60
2018-04-15T16:34:01.788Z,0.83
2018-04-15T16:36:30.154Z,1.00
2018-04-15T16:38:57.664Z,0.97
2018-04-15T16:41:25.137Z,1.30
2018-04-15T16:43:53.535Z,0.80
2018-04-15T16:46:23.482Z,1.10
2018-04-15T16:48:51.733Z,1.23
2018-04-15T16:51:24.169Z,1.03
2018-04-15T16:53:51.996Z,0.90
2018-04-15T16:56:32.580Z,0.97
2018-04-15T16:59:01.240Z,1.00
2018-04-15T17:01:28.733Z,1.00
2018-04-15T17:06:31.461Z,1.23
2018-04-15T17:09:03.461Z,1.10
2018-04-15T17:11:32.158Z,0.90
2018-04-15T17:14:00.615Z,1.10
2018-04-15T17:16:28.954Z,0.90
2018-04-15T17:18:56.816Z,0.87
2018-04-15T17:23:57.008Z,0.60
2018-04-15T17:26:26.148Z,1.00
2018-04-15T17:31:28.170Z,0.97
2018-04-15T17:34:04.064Z,0.63
2018-04-15T17:39:12.664Z,1.30
2018-04-15T17:41:42.651Z,1.10
2018-04-15T17:46:43.987Z,0.80
2018-04-15T17:49:12.430Z,0.90
2018-04-15T17:51:40.615Z,0.70
2018-04-15T17:54:08.519Z,0.60
2018-04-15T17:56:36.912Z,0.80
2018-04-15T18:01:41.098Z,0.80
2018-04-15T18:11:52.165Z,1.00
2018-04-15T22:29:03.701Z,1.40
